This is the latest recevied weather packets stored in our database for station/object NEWPRT. If no packets are shown the sender has not sent any weather packets the latest 10 day(s).
| Time | Temp. | Humidity | Pressure | Rain* | Wind** | Luminosity | Snow |
|---|---|---|---|---|---|---|---|
| 1777902146 | - | 82% | 1013.9 hPa | 0 mm | - | - | - |
| 1777901823 | - | 82% | 1013.7 hPa | 0 mm | - | - | - |
| 1777901500 | - | 78% | 1013.5 hPa | 0 mm | - | - | - |
| 1777901177 | - | 84% | 1013.5 hPa | 0 mm | - | - | - |
| 1777900854 | - | 88% | 1013.7 hPa | 0 mm | - | - | - |
| 1777900531 | - | 88% | 1013.9 hPa | 0 mm | - | - | - |
| 1777900208 | - | 84% | 1013.3 hPa | 0 mm | - | - | - |
| 1777899885 | - | 83% | 1013.4 hPa | 0 mm | - | - | - |
| 1777899562 | - | 82% | 1013.3 hPa | 0 mm | - | - | - |
| 1777899239 | - | 83% | 1013.4 hPa | 0 mm | - | - | - |
| 1777898916 | - | 82% | 1013.2 hPa | 0 mm | - | - | - |
| 1777898593 | - | 81% | 1013.2 hPa | 0 mm | - | - | - |
| 1777898270 | - | 82% | 1013.1 hPa | 0 mm | - | - | - |
| 1777897947 | - | 82% | 1013.1 hPa | 0 mm | - | - | - |
| 1777897624 | - | 82% | 1013 hPa | 0 mm | - | - | - |
| 1777897300 | - | 80% | 1012.9 hPa | 0 mm | - | - | - |
| 1777896978 | - | 80% | 1013 hPa | 0 mm | - | - | - |
| 1777896655 | - | 83% | 1013.2 hPa | 0 mm | - | - | - |
| 1777896332 | - | 84% | 1013.4 hPa | 0 mm | - | - | - |
| 1777896010 | - | 83% | 1013.2 hPa | 0 mm | - | - | - |
| 1777895686 | - | 84% | 1013.1 hPa | 0 mm | - | - | - |
| 1777895363 | - | 83% | 1013.2 hPa | 0 mm | - | - | - |
| 1777895039 | - | 85% | 1013.5 hPa | 0 mm | - | - | - |
| 1777894716 | - | 83% | 1013.4 hPa | 0 mm | - | - | - |
| 1777894393 | - | 82% | 1013.1 hPa | 0.25 mm | - | - | - |
* Rain latest hour (hover to see other rain measurements)
** Current wind speed in m/s (hover to see current wind gust speed)